Date,TemperatureHighF,TemperatureAvgF,TemperatureLowF,DewpointHighF,DewpointAvgF,DewpointLowF,HumidityHigh,HumidityAvg,HumidityLow,PressureMaxIn,PressureMinIn,WindSpeedMaxMPH,WindSpeedAvgMPH,GustSpeedMaxMPH,PrecipitationSumIn
2013-1-1,35,32,27,32,28,21,97,87,73,30.22,30.10,6,2,10,0.00
2013-1-2,32,25,18,22,18,14,94,76,53,30.33,30.20,4,1,7,0.00
2013-1-3,36,27,17,25,19,13,87,72,48,30.39,30.28,7,2,13,0.00
2013-1-4,38,33,30,26,24,22,80,70,55,30.41,30.36,11,4,17,0.01
2013-1-5,42,33,23,31,26,21,94,78,56,30.43,30.23,6,1,11,0.06
2013-1-6,40,35,29,34,29,23,84,79,74,30.42,30.09,8,3,14,0.00
2013-1-7,42,31,22,29,25,20,95,79,60,30.55,30.31,5,1,9,0.00
2013-1-8,52,36,25,36,30,23,95,79,55,30.40,30.28,10,1,13,0.00
2013-1-9,56,45,34,46,38,31,94,79,53,30.55,30.28,7,1,15,0.05
2013-1-10,44,38,30,41,35,29,97,88,71,30.57,30.16,3,0,6,0.10
2013-1-11,62,54,44,56,50,41,97,87,70,30.15,29.95,13,2,15,0.52
2013-1-12,66,60,50,63,58,48,99,93,81,30.06,29.84,7,1,14,0.02
2013-1-13,68,55,37,63,54,34,98,94,78,30.17,29.76,8,2,20,0.99
2013-1-14,36,28,24,34,24,21,91,84,76,30.52,30.17,7,2,11,0.00
2013-1-15,34,29,24,27,24,21,90,82,73,30.45,30.16,6,2,10,0.00
2013-1-16,37,34,31,30,29,27,87,81,68,30.15,30.05,7,2,8,0.00
2013-1-17,44,35,29,32,28,22,89,76,58,30.45,30.16,7,2,15,0.00
2013-1-18,42,31,19,26,21,16,91,69,46,30.59,30.31,10,2,13,0.00
2013-1-19,55,45,38,31,29,26,66,54,38,30.30,29.97,12,6,20,0.00
2013-1-20,48,36,27,37,19,11,71,52,39,30.29,29.97,15,3,22,0.00
2013-1-21,28,22,13,18,10,0,73,59,44,30.33,30.17,15,3,20,0.00
2013-1-22,20,14,7,2,0,-2,70,55,41,30.49,30.33,11,2,14,0.00
2013-1-23,23,19,11,12,6,1,73,58,49,30.45,30.18,9,1,11,0.00
2013-1-24,25,21,16,13,7,2,69,56,37,30.67,30.18,9,2,17,0.00
2013-1-25,27,24,21,22,16,8,88,73,54,30.52,30.12,6,2,9,0.00
2013-1-26,33,26,20,22,19,17,94,77,57,30.51,30.21,7,1,9,0.00
2013-1-27,39,30,21,35,24,17,94,78,61,30.52,30.24,3,1,7,0.27
2013-1-28,54,48,37,53,46,36,98,94,80,30.24,30.08,10,3,15,0.15
2013-1-29,65,60,50,60,55,49,97,86,77,30.09,29.61,15,3,19,0.00
2013-1-30,68,54,34,61,50,27,97,85,74,29.61,29.30,16,5,25,0.75
2013-1-31,34,28,17,27,20,12,92,73,59,30.11,29.61,13,5,26,0.00
2013-2-1,19,13,8,11,5,0,81,69,59,30.50,30.12,10,3,20,0.00
2013-2-2,32,24,12,28,20,7,91,84,76,30.42,30.08,10,2,14,0.00
2013-2-3,25,22,17,21,17,13,91,80,70,30.21,30.01,10,2,12,0.00
2013-2-4,35,27,16,34,24,14,97,89,71,30.20,29.90,5,1,10,0.01
2013-2-5,38,34,29,35,31,26,98,87,79,30.07,29.91,5,1,10,0.09
2013-2-6,38,35,30,33,29,27,89,80,70,30.32,30.07,7,1,17,0.00
2013-2-7,63,44,32,39,34,28,88,70,40,30.27,29.85,4,0,9,0.00
2013-2-8,53,39,33,46,33,25,93,80,61,30.37,29.83,9,4,19,0.09
2013-2-9,43,33,24,25,22,19,86,65,42,30.50,30.28,4,1,9,0.00
2013-2-10,56,44,31,46,32,22,92,66,42,30.29,29.85,12,2,15,0.03
2013-2-11,54,48,39,51,37,29,95,68,50,30.09,29.81,18,6,26,0.00
2013-2-12,51,40,29,30,28,25,87,64,39,30.19,29.96,9,2,11,0.00
2013-2-13,41,33,30,32,29,28,94,86,59,29.95,29.84,8,1,9,0.04
2013-2-14,55,41,30,40,34,29,96,80,53,30.05,29.88,12,3,17,0.02
2013-2-15,42,34,25,32,28,22,92,80,60,30.21,30.04,8,1,17,0.00
2013-2-16,30,24,19,22,17,11,94,73,52,30.21,30.11,9,2,16,0.00
2013-2-17,33,23,13,15,11,8,92,64,36,30.33,30.19,8,1,9,0.00
2013-2-18,61,41,23,41,26,11,83,56,42,30.29,29.80,12,3,25,0.05
2013-2-19,47,34,25,43,27,16,95,76,61,30.18,29.71,14,5,23,0.17
2013-2-20,30,24,20,17,14,12,79,66,54,30.38,30.19,8,2,13,0.00
2013-2-21,33,27,20,27,20,14,88,74,63,30.43,30.12,7,2,13,0.00
2013-2-22,44,36,30,39,34,27,98,92,81,30.14,29.96,8,1,16,0.05
2013-2-23,45,37,32,34,29,26,97,73,51,30.06,29.95,8,2,9,0.00
2013-2-24,44,34,27,27,25,22,87,71,51,30.21,29.99,8,2,11,0.00
2013-2-25,47,36,26,28,25,22,84,65,47,30.24,29.95,7,2,10,0.00
2013-2-26,50,42,36,49,38,25,97,85,62,29.95,29.40,7,2,23,0.76
2013-2-27,42,38,34,41,35,31,93,89,79,29.78,29.56,15,6,19,0.05
2013-2-28,37,35,33,34,32,30,94,88,84,30.01,29.75,10,3,14,0.01
2013-3-1,37,35,31,34,32,24,96,89,76,30.10,29.99,6,2,10,0.04
2013-3-2,30,29,27,24,23,21,84,78,72,30.15,30.08,8,3,12,0.00
2013-3-3,32,29,22,25,22,18,88,75,64,30.16,30.11,6,1,12,0.00
2013-3-4,44,33,19,28,22,17,94,69,45,30.24,30.05,4,1,10,0.00
2013-3-5,40,37,31,38,33,26,97,85,60,30.06,29.63,9,1,10,0.40
2013-3-6,34,31,29,30,29,27,97,91,86,30.32,29.70,8,2,13,0.01
2013-3-7,40,34,31,33,30,28,94,85,74,30.44,30.31,4,0,6,0.22
2013-3-8,45,36,27,28,26,23,87,68,46,30.54,30.43,6,1,11,0.01
2013-3-9,59,45,30,38,32,27,89,64,42,30.44,30.08,6,1,9,0.00
2013-3-10,69,59,50,48,37,35,74,45,29,30.07,29.85,17,2,18,0.03
2013-3-11,57,49,39,53,45,33,96,87,69,29.90,29.64,12,3,21,1.24
2013-3-12,46,39,35,33,30,28,90,72,53,30.11,29.90,10,3,15,0.01
2013-3-13,35,30,27,32,26,20,95,83,69,30.38,30.06,9,2,16,0.00
2013-3-14,46,33,21,25,21,18,93,65,34,30.43,30.23,9,1,12,0.01
2013-3-15,54,42,30,41,34,27,94,75,57,30.23,29.83,7,1,10,0.00
2013-3-16,61,48,39,54,43,34,97,85,66,30.06,29.66,10,3,17,0.24
2013-3-17,38,36,35,34,31,29,91,82,77,30.19,30.04,9,2,12,0.08
2013-3-18,52,41,35,50,39,33,97,92,78,30.05,29.66,9,2,16,1.01
2013-3-19,46,38,30,35,24,15,89,59,31,30.16,29.88,17,5,27,0.00
2013-3-20,38,32,25,23,18,13,77,56,40,30.16,30.01,15,3,18,0.00
2013-3-21,33,27,21,16,13,9,75,58,44,30.11,30.01,15,2,15,0.00
2013-3-22,46,32,20,21,18,14,85,58,32,30.15,30.04,7,1,10,0.00
2013-3-23,53,42,31,27,24,21,73,52,33,30.12,29.92,8,1,10,0.00
2013-3-24,41,36,33,35,30,25,97,79,53,29.92,29.46,6,2,11,0.07
2013-3-25,35,33,31,33,31,29,97,94,91,30.00,29.48,8,2,14,0.34
2013-3-26,42,36,32,34,30,27,93,81,64,30.30,30.01,9,2,12,0.24
2013-3-27,45,37,30,31,28,25,86,69,52,30.37,30.29,6,2,12,0.00
2013-3-28,52,41,31,30,26,23,74,57,40,30.42,30.33,6,2,11,0.00
2013-3-29,57,44,30,35,30,27,90,62,36,30.38,30.24,9,1,9,0.00
2013-3-30,62,50,34,37,34,31,88,58,35,30.29,29.98,5,1,11,0.00
2013-3-31,58,51,46,48,44,36,96,80,55,29.98,29.81,12,2,16,0.08
2013-4-1,50,43,38,42,28,19,83,58,36,30.16,29.82,9,2,15,0.00
2013-4-2,48,37,25,24,19,14,80,51,26,30.32,30.17,6,2,13,0.00
2013-4-3,50,38,26,21,18,15,72,46,26,30.48,30.31,10,1,12,0.00
2013-4-4,58,44,34,25,20,18,53,41,22,30.38,30.04,6,1,9,0.00
2013-4-5,62,48,34,40,30,25,79,52,29,30.17,30.02,10,2,17,0.00
2013-4-6,69,54,40,40,32,24,60,45,30,30.25,29.94,6,2,13,0.00
2013-4-7,73,64,57,57,48,38,97,57,42,30.02,29.89,11,4,16,0.24
2013-4-8,74,64,54,57,55,52,98,75,56,30.02,29.89,11,3,19,0.09
2013-4-9,80,70,56,61,58,53,89,68,47,30.06,29.93,15,4,24,0.00
2013-4-10,84,75,66,66,62,60,82,65,51,29.97,29.76,14,4,23,0.00
2013-4-11,72,64,60,64,60,58,98,89,70,29.82,29.55,7,1,12,1.14
2013-4-12,60,48,42,59,40,33,98,76,60,29.96,29.53,14,4,19,0.13
2013-4-13,60,48,37,40,36,33,89,65,40,30.07,29.96,14,3,23,0.00
2013-4-14,74,57,41,47,42,36,83,59,35,30.10,29.89,8,1,9,0.00
2013-4-15,70,63,57,56,52,46,82,69,57,30.01,29.91,6,2,11,0.00
2013-4-16,81,66,56,66,60,53,97,82,60,30.19,29.97,22,3,27,0.34
2013-4-17,81,66,56,67,61,56,98,86,58,30.20,29.97,9,2,13,0.10
2013-4-18,83,74,64,66,60,55,86,64,43,29.97,29.60,20,5,26,0.00
2013-4-19,76,50,40,62,42,32,94,75,51,30.03,29.44,14,5,21,0.67
2013-4-20,52,44,37,35,31,27,88,63,40,30.46,30.03,9,3,16,0.00
2013-4-21,59,47,34,33,30,25,71,53,34,30.59,30.42,5,1,11,0.00
2013-4-22,73,56,39,44,36,30,74,50,31,30.42,30.16,5,1,10,0.00
2013-4-23,71,61,46,54,49,43,89,67,53,30.17,29.89,9,2,14,0.00
2013-4-24,66,52,37,57,45,36,95,80,61,30.27,29.80,11,3,19,0.64
2013-4-25,61,47,33,40,36,31,98,70,39,30.44,30.27,12,2,16,0.00
2013-4-26,65,51,34,40,34,31,95,59,29,30.52,30.37,5,1,8,0.00
2013-4-27,65,56,44,52,44,37,81,65,40,30.38,30.08,8,2,11,0.00
2013-4-28,69,60,55,61,56,52,96,87,71,30.07,29.84,8,2,12,0.08
2013-4-29,66,59,53,59,56,52,97,88,67,30.03,29.91,3,0,7,0.03
2013-4-30,82,65,49,59,54,48,99,73,39,30.08,30.00,5,1,9,0.01
2013-5-1,87,71,54,61,57,53,96,64,37,30.18,30.07,4,1,11,0.00
2013-5-2,77,69,60,57,55,52,76,62,50,30.21,30.09,7,1,11,0.00
2013-5-3,79,69,61,61,54,42,84,61,36,30.09,29.95,8,2,16,0.00
2013-5-4,75,66,58,58,48,42,85,54,38,30.01,29.92,9,2,12,0.00
2013-5-5,59,56,52,54,51,47,96,85,67,30.00,29.94,6,1,10,1.14
2013-5-6,64,59,53,58,56,52,97,89,79,29.98,29.92,8,1,10,0.71
2013-5-7,75,63,57,61,58,56,97,84,55,30.01,29.92,5,1,9,0.29
2013-5-8,78,65,54,61,58,54,98,82,45,30.02,29.94,7,1,11,0.43
2013-5-9,82,68,55,64,58,55,99,76,40,30.04,29.94,4,0,9,0.01
2013-5-10,71,64,61,65,62,59,99,94,79,29.97,29.82,9,1,15,1.54
2013-5-11,62,55,47,62,51,42,99,87,71,30.04,29.86,7,2,17,0.09
2013-5-12,58,49,40,42,37,32,95,66,40,30.17,30.04,8,2,13,0.00
2013-5-13,63,52,38,42,36,32,93,60,32,30.23,30.15,14,2,14,0.00
2013-5-14,84,64,44,61,50,39,86,63,43,30.19,29.85,8,2,16,0.00
2013-5-15,89,72,69,64,45,-100,72,49,40,29.91,29.80,12,-91,18,0.00
2013-5-16,76,66,63,69,53,-100,96,72,56,29.99,29.84,4,-62,9,0.06
2013-5-17,84,69,60,68,64,60,99,87,54,30.07,29.98,13,1,15,0.14
2013-5-18,83,70,64,71,66,63,99,90,60,30.07,29.97,2,0,8,0.22
2013-5-19,88,73,64,71,68,63,99,85,54,30.02,29.89,3,0,4,0.04
2013-5-20,89,77,67,73,70,66,98,80,56,30.00,29.88,7,1,10,0.00
2013-5-21,86,77,68,69,67,64,91,72,52,29.95,29.79,8,2,13,0.00
2013-5-22,81,71,64,69,65,62,97,82,59,29.84,29.73,7,1,13,0.22
2013-5-23,72,64,54,65,60,49,99,86,62,30.10,29.80,8,2,21,0.25
2013-5-24,66,57,50,49,44,41,84,65,41,30.34,30.10,9,2,16,0.00
2013-5-25,68,56,44,50,44,42,92,67,43,30.42,30.25,3,0,6,0.00
2013-5-26,74,64,55,52,49,45,86,61,41,30.34,30.19,4,1,7,0.00
2013-5-27,85,71,56,64,56,47,89,60,38,30.21,29.95,8,2,14,0.09
2013-5-28,84,77,68,69,64,60,84,64,49,30.03,29.92,9,2,14,0.00
2013-5-29,88,78,69,67,64,61,79,63,43,30.08,29.98,8,2,14,0.00
2013-5-30,89,79,69,70,68,63,88,69,53,30.13,29.99,7,1,10,0.00
2013-5-31,84,74,68,71,68,65,96,82,62,30.05,29.93,8,1,22,0.59
2013-6-1,82,74,68,71,69,66,97,84,64,29.96,29.78,7,1,17,0.01
2013-6-2,80,72,67,68,63,61,91,74,54,29.93,29.81,8,2,12,0.00
2013-6-3,71,64,57,61,54,50,82,71,58,30.07,29.92,6,2,11,0.00
2013-6-4,80,67,52,53,48,42,93,55,29,30.17,30.06,5,1,8,0.00
2013-6-5,86,72,58,65,57,50,85,63,44,30.09,29.86,4,0,7,0.00
2013-6-6,75,68,65,68,65,62,96,90,76,29.86,29.77,5,1,9,1.06
2013-6-7,77,68,60,62,60,58,94,77,57,29.89,29.80,10,1,10,0.00
2013-6-8,78,69,59,66,60,56,88,74,60,30.03,29.89,4,0,7,0.00
2013-6-9,84,73,63,71,66,61,96,80,52,30.07,29.91,7,1,11,0.24
2013-6-10,81,70,65,71,66,64,98,88,56,29.91,29.79,5,1,14,0.52
2013-6-11,88,75,64,69,66,63,96,75,48,29.97,29.87,5,1,10,0.00
2013-6-12,89,77,70,78,71,67,94,84,68,29.92,29.87,2,0,5,0.00
2013-6-13,79,72,68,69,58,-100,95,65,52,29.91,29.75,13,-18,20,0.07
2013-6-14,82,70,56,63,59,55,95,69,46,30.05,29.92,8,1,11,0.00
2013-6-15,86,74,59,67,62,57,96,70,48,30.12,29.95,3,0,8,0.00
2013-6-16,77,73,68,71,68,64,96,84,74,30.02,29.94,3,0,8,0.04
2013-6-17,92,77,67,73,69,66,98,79,46,29.98,29.86,4,0,8,0.00
2013-6-18,86,74,68,73,67,63,93,79,58,29.98,29.84,4,0,7,0.07
2013-6-19,85,72,60,62,58,56,87,63,40,30.11,29.98,4,1,9,0.00
2013-6-20,89,75,60,65,60,56,90,63,37,30.20,30.12,5,0,7,0.00
2013-6-21,92,78,63,69,64,59,90,67,41,30.20,30.10,4,0,9,0.00
2013-6-22,91,78,68,74,70,66,95,76,53,30.17,30.05,4,1,16,0.00
2013-6-23,91,76,67,76,69,66,98,81,48,30.13,30.04,4,0,11,0.21
2013-6-24,88,77,67,74,70,66,99,81,59,30.13,30.01,5,1,10,0.00
2013-6-25,93,81,69,77,73,68,97,76,56,30.05,29.87,4,1,11,0.00
2013-6-26,88,75,68,76,71,67,98,87,67,29.93,29.76,5,1,17,0.63
2013-6-27,87,76,68,75,71,67,99,86,62,29.79,29.68,7,1,11,0.03
2013-6-28,87,76,65,72,67,62,95,76,46,29.69,29.58,11,2,25,0.03
2013-6-29,79,70,62,71,66,62,98,89,72,29.66,29.57,6,0,11,0.16
2013-6-30,82,72,64,69,66,63,98,83,54,29.82,29.65,8,1,13,0.05
2013-7-1,78,70,65,72,67,62,98,89,74,29.93,29.80,4,1,8,1.09
2013-7-2,85,73,66,71,68,66,99,84,56,30.01,29.91,3,0,7,0.01
2013-7-3,84,76,68,71,69,67,97,80,62,30.11,30.01,4,0,8,0.00
2013-7-4,73,70,69,70,69,68,98,97,90,30.16,30.07,2,0,7,1.16
2013-7-5,80,72,66,73,70,66,99,93,77,30.15,30.09,2,0,5,0.10
2013-7-6,78,71,68,74,70,67,100,96,84,30.13,30.05,3,0,7,2.93
2013-7-7,86,74,65,73,69,65,99,85,61,30.13,30.03,3,0,6,0.01
2013-7-8,89,78,67,77,71,67,99,82,60,30.12,30.03,3,0,10,0.00
2013-7-9,92,82,74,80,75,72,92,80,62,30.07,29.96,4,1,10,0.03
2013-7-10,91,79,70,81,75,69,99,87,69,29.98,29.82,9,1,13,1.28
2013-7-11,83,74,68,70,66,59,99,78,58,30.01,29.92,8,1,16,0.01
2013-7-12,83,72,62,64,60,58,89,67,44,30.10,30.02,7,1,14,0.00
2013-7-13,87,77,68,69,66,61,83,68,52,30.13,30.05,6,1,13,0.00
2013-7-14,96,82,71,75,72,67,98,74,51,30.20,30.11,7,1,20,0.50
2013-7-15,98,83,72,77,74,69,99,76,44,30.28,30.20,3,0,5,0.01
2013-7-16,97,84,72,81,74,71,97,75,48,30.31,30.23,5,0,9,0.00
2013-7-17,94,84,74,78,75,73,97,77,56,30.30,30.16,5,1,10,0.00
2013-7-18,98,86,74,79,74,70,94,71,45,30.18,30.00,3,0,6,0.00
2013-7-19,92,84,76,79,76,74,96,79,60,30.02,29.87,5,0,9,0.00
2013-7-20,91,80,71,77,73,68,94,81,63,29.92,29.83,5,1,17,0.08
2013-7-21,89,78,69,77,72,68,97,81,59,29.96,29.86,5,0,8,0.07
2013-7-22,82,74,70,75,72,70,98,94,76,29.90,29.75,2,0,5,0.46
2013-7-23,90,77,69,78,73,69,100,88,66,29.82,29.71,7,1,16,0.28
2013-7-24,80,69,60,68,61,57,92,77,55,29.99,29.82,6,2,12,0.00
2013-7-25,82,69,58,61,58,55,89,68,44,30.09,30.00,5,1,10,0.00
2013-7-26,84,72,58,64,61,57,97,72,48,30.09,29.97,4,0,7,0.00
2013-7-27,79,69,64,69,64,59,98,84,55,29.97,29.84,5,1,12,0.21
2013-7-28,76,66,56,59,54,51,90,68,47,30.07,29.91,6,1,11,0.00
2013-7-29,80,67,56,61,58,54,96,73,48,30.19,30.07,5,1,10,0.00
2013-7-30,82,70,58,68,62,57,97,77,49,30.24,30.11,2,0,4,0.00
2013-7-31,80,72,66,71,67,64,96,85,72,30.11,29.94,4,0,5,0.02
2013-8-1,84,73,66,69,65,59,97,78,49,30.00,29.92,9,1,12,0.01
2013-8-2,86,74,60,68,63,58,95,72,49,30.01,29.95,5,1,9,0.00
2013-8-3,82,74,67,72,68,64,98,82,61,30.02,29.95,5,1,10,0.06
2013-8-4,80,71,61,64,58,55,83,66,43,30.13,30.02,7,2,12,0.00
2013-8-5,83,71,58,64,59,56,96,68,43,30.13,29.97,3,0,9,0.00
2013-8-6,85,76,68,72,66,60,92,72,61,29.98,29.91,4,0,6,0.00
2013-8-7,87,77,70,76,73,69,98,86,69,29.94,29.86,4,0,5,0.00
2013-8-8,88,78,70,78,74,70,99,89,68,29.95,29.87,6,0,14,1.64
2013-8-9,83,75,70,76,72,69,100,91,70,30.02,29.89,6,1,10,0.14
2013-8-10,89,78,70,73,71,69,98,81,54,30.10,30.02,3,0,6,0.00
2013-8-11,89,78,70,76,70,66,98,78,55,30.08,30.01,7,1,9,0.00
2013-8-12,88,77,66,75,70,66,98,82,57,30.07,29.86,3,0,8,0.00
2013-8-13,79,73,62,74,65,52,97,77,57,30.06,29.84,9,2,13,0.00
2013-8-14,74,63,54,54,52,49,88,67,46,30.18,30.06,6,2,13,0.00
2013-8-15,77,65,52,58,54,51,96,72,48,30.20,30.09,4,1,8,0.00
2013-8-16,81,69,56,59,57,54,93,67,45,30.16,30.11,5,1,10,0.00
2013-8-17,86,72,59,64,60,56,90,69,45,30.19,30.10,5,1,6,0.00
2013-8-18,86,74,62,68,64,60,96,73,47,30.18,30.08,5,0,7,0.00
2013-8-19,88,75,63,69,64,61,98,73,42,30.14,30.05,4,0,8,0.00
2013-8-20,90,76,64,71,66,63,97,72,47,30.16,30.07,5,0,9,0.00
2013-8-21,90,78,68,74,70,67,94,78,51,30.15,30.05,2,0,5,0.00
2013-8-22,89,77,68,75,70,67,96,82,54,30.11,30.01,7,1,12,0.02
2013-8-23,87,75,67,72,68,66,99,81,53,30.13,30.03,6,1,10,0.03
2013-8-24,90,76,62,68,63,58,89,66,41,30.26,30.14,5,1,8,0.00
2013-8-25,92,76,62,68,62,58,97,67,36,30.33,30.21,3,0,8,0.00
2013-8-26,92,77,63,74,68,60,95,75,49,30.25,30.07,5,1,9,0.00
2013-8-27,92,81,71,78,74,70,96,81,59,30.07,29.94,3,0,9,0.00
2013-8-28,96,84,75,77,75,73,95,75,50,29.96,29.85,8,1,15,0.01
2013-8-29,89,80,72,76,72,69,95,78,54,30.02,29.93,4,0,8,0.00
2013-8-30,92,79,68,73,70,68,98,76,51,29.98,29.83,4,0,7,0.00
2013-8-31,95,78,68,77,72,67,99,84,56,29.88,29.71,13,1,25,1.21
2013-9-1,88,76,68,75,71,67,99,86,63,29.83,29.75,5,0,6,0.01
2013-9-2,88,78,71,75,71,62,98,79,57,29.87,29.77,7,1,13,0.00
2013-9-3,76,68,60,62,58,55,90,73,55,30.06,29.88,8,2,11,0.00
2013-9-4,84,70,56,65,61,56,98,75,50,30.16,30.07,7,0,7,0.00
2013-9-5,87,73,60,67,62,54,97,71,44,30.19,30.11,5,1,7,0.00
2013-9-6,84,70,57,58,54,50,81,59,35,30.25,30.10,2,0,6,0.00
2013-9-7,88,73,58,70,63,56,94,73,53,30.11,29.95,3,0,8,0.00
2013-9-8,91,78,67,74,69,66,96,75,51,29.98,29.91,3,0,7,0.00
2013-9-9,92,80,69,74,71,68,97,75,50,30.02,29.94,4,1,9,0.00
2013-9-10,94,83,75,78,74,71,91,75,57,30.11,30.00,3,1,8,0.00
2013-9-11,92,80,72,77,73,70,94,79,61,30.14,30.00,3,0,6,0.00
2013-9-12,80,75,69,73,71,64,96,86,68,29.99,29.86,7,1,11,0.08
2013-9-13,68,61,54,63,51,46,88,71,52,30.11,29.90,9,2,13,0.00
2013-9-14,74,59,47,50,46,44,92,67,35,30.21,30.11,6,0,7,0.00
2013-9-15,79,64,49,61,54,48,97,73,48,30.17,30.04,5,0,9,0.00
2013-9-16,74,65,60,60,58,54,95,78,56,30.28,30.08,5,1,10,0.03
2013-9-17,78,65,52,58,54,50,93,70,46,30.34,30.17,5,1,10,0.00
2013-9-18,80,68,60,68,61,54,96,79,55,30.18,30.07,3,0,5,0.00
2013-9-19,82,71,65,71,68,64,98,90,67,30.10,29.97,4,0,6,0.18
2013-9-20,87,74,66,72,69,66,100,88,60,30.00,29.79,10,1,15,1.39
2013-9-21,74,66,59,68,59,51,99,81,48,29.89,29.70,9,2,13,1.04
2013-9-22,69,59,51,51,49,46,92,72,46,30.03,29.89,9,2,11,0.00
2013-9-23,72,59,47,52,49,45,96,72,47,30.14,30.03,4,0,11,0.00
2013-9-24,77,61,47,62,53,45,95,76,55,30.12,29.93,4,0,7,0.00
2013-9-25,75,64,57,58,55,53,90,75,50,29.95,29.89,4,0,8,0.00
2013-9-26,81,63,50,62,56,49,98,80,50,30.08,29.94,5,0,7,0.00
2013-9-27,82,66,52,61,54,50,95,70,36,30.19,30.08,3,0,6,0.00
2013-9-28,82,67,53,62,58,52,98,75,46,30.21,30.07,4,0,6,0.00
2013-9-29,70,63,57,63,60,57,99,92,75,30.07,30.02,3,0,7,0.04
2013-9-30,76,66,62,66,63,61,98,90,70,30.05,29.96,4,0,7,0.08
2013-10-1,79,67,58,68,63,58,100,87,64,30.10,30.02,5,0,7,0.00
2013-10-2,82,69,60,72,66,60,99,90,71,30.13,30.04,2,0,4,0.00
2013-10-3,83,72,67,74,69,66,99,90,63,30.09,30.00,4,0,6,0.29
2013-10-4,85,74,64,72,68,64,100,85,60,30.09,30.01,4,0,7,0.01
2013-10-5,81,72,67,73,70,67,98,92,75,30.06,29.95,4,0,9,0.42
2013-10-6,73,64,55,70,64,54,99,97,88,29.96,29.72,6,1,12,2.88
2013-10-7,63,53,46,54,48,45,98,83,57,30.19,29.85,11,1,13,0.00
2013-10-8,70,55,44,52,47,43,99,78,44,30.32,30.19,6,1,8,0.01
2013-10-9,76,59,46,55,50,45,96,74,41,30.27,30.18,4,0,6,0.00
2013-10-10,76,58,44,54,48,44,98,73,36,30.22,30.10,3,0,5,0.00
2013-10-11,80,62,48,59,53,47,97,76,42,30.14,30.03,2,0,4,0.00
2013-10-12,81,64,51,63,58,51,98,81,47,30.13,30.05,3,0,4,0.00
2013-10-13,74,64,56,63,57,45,99,80,56,30.31,30.13,7,1,11,0.00
2013-10-14,73,60,48,54,49,44,88,69,44,30.35,30.19,7,1,9,0.00
2013-10-15,75,64,54,66,60,53,98,87,72,30.20,29.96,4,0,6,0.00
2013-10-16,67,62,49,64,58,48,98,88,63,29.98,29.91,5,0,8,0.18
2013-10-17,56,49,43,51,47,43,99,91,77,30.03,29.92,5,0,9,0.09
2013-10-18,66,52,42,53,46,42,99,82,51,30.10,29.98,4,1,9,0.01
2013-10-19,54,47,39,48,44,38,97,89,75,30.05,29.88,9,1,13,0.18
2013-10-20,62,49,37,47,42,37,98,80,53,30.09,30.03,7,1,10,0.01
2013-10-21,66,54,40,50,44,39,96,74,48,30.07,29.93,7,1,11,0.01
2013-10-22,53,45,33,47,36,30,96,72,44,30.10,29.89,5,0,13,0.08
2013-10-23,46,42,37,42,37,32,95,83,61,30.09,29.77,9,2,15,0.10
2013-10-24,45,40,36,37,35,32,96,85,62,30.32,30.09,6,1,12,0.10
2013-10-25,50,38,31,35,31,28,94,76,46,30.50,30.33,6,1,8,0.00
2013-10-26,54,42,30,41,34,28,91,73,56,30.34,29.99,7,1,12,0.00
2013-10-27,59,45,34,43,38,33,96,77,46,30.16,30.08,3,0,6,0.00
2013-10-28,64,47,33,44,38,32,98,76,39,30.33,30.13,4,0,6,0.00
2013-10-29,58,48,36,51,42,35,95,81,67,30.40,30.25,2,0,4,0.01
2013-10-30,62,58,52,62,57,51,99,97,92,30.24,30.04,0,0,3,0.19
2013-10-31,65,62,59,65,61,57,99,94,83,30.03,29.38,7,2,15,1.38
2013-11-1,64,57,48,56,49,45,97,77,52,29.78,29.45,7,1,15,0.03
2013-11-2,57,50,42,45,41,38,88,72,54,30.13,29.77,9,1,16,0.00
2013-11-3,55,45,39,42,39,37,97,80,53,30.41,30.13,2,0,7,0.00
2013-11-4,59,49,39,46,40,34,90,74,57,30.46,30.34,9,0,10,0.00
2013-11-5,62,55,49,48,46,42,92,73,54,30.45,30.25,4,0,8,0.00
2013-11-6,67,56,46,60,50,40,96,82,66,30.25,30.01,9,1,17,0.28
2013-11-7,49,44,36,44,35,28,95,74,46,30.30,30.06,8,2,11,0.04
2013-11-8,53,40,29,35,32,27,95,73,43,30.43,30.26,7,1,12,0.00
2013-11-9,62,49,34,41,35,29,83,62,41,30.29,30.07,10,2,17,0.00
2013-11-10,51,45,33,42,34,28,89,67,46,30.39,30.15,10,2,20,0.00
2013-11-11,60,44,30,45,35,29,97,76,34,30.36,30.13,9,2,16,0.09
2013-11-12,36,30,26,35,25,21,96,80,57,30.68,30.31,10,3,18,0.02
2013-11-13,41,30,20,24,22,19,95,72,42,30.71,30.47,7,1,10,0.00
2013-11-14,55,40,27,26,23,21,82,55,28,30.46,30.21,10,1,12,0.00
2013-11-15,54,46,37,44,32,23,88,60,43,30.23,30.14,6,0,9,0.00
2013-11-16,61,54,47,57,51,44,94,89,85,30.18,29.95,5,1,9,0.00
2013-11-17,64,60,52,64,57,42,98,89,65,29.95,29.55,9,3,19,1.64
2013-11-18,53,47,38,42,36,29,91,66,49,30.24,29.84,12,3,18,0.00
2013-11-19,43,36,31,31,29,27,87,75,61,30.41,30.23,9,1,10,0.00
2013-11-20,52,40,30,35,31,25,84,71,52,30.39,30.27,5,0,8,0.00
2013-11-21,57,48,40,48,41,34,96,76,60,30.38,30.23,5,0,8,0.04
2013-11-22,54,49,39,54,46,32,99,91,73,30.42,30.20,7,2,17,0.14
2013-11-23,40,32,23,32,24,14,93,72,45,30.63,30.40,10,3,21,0.00
2013-11-24,28,22,15,15,12,8,82,67,55,30.77,30.60,8,1,11,0.00
2013-11-25,40,31,19,31,19,13,89,63,45,30.61,30.26,8,2,13,0.00
2013-11-26,36,34,32,34,31,28,96,90,81,30.28,29.98,5,1,10,0.04
2013-11-27,34,28,23,30,21,15,88,74,66,30.36,29.98,9,3,18,0.00
2013-11-28,36,26,18,19,17,13,85,69,50,30.52,30.36,7,1,12,0.00
2013-11-29,41,30,19,25,22,17,93,74,52,30.70,30.52,2,0,5,0.00
2013-11-30,52,37,26,33,28,22,86,70,47,30.58,30.23,5,1,9,0.00
2013-12-1,53,45,37,40,35,29,77,68,58,30.23,30.00,8,1,10,0.00
2013-12-2,53,45,38,42,39,35,90,78,63,30.00,29.82,3,0,5,0.00
2013-12-3,54,45,35,48,42,34,98,91,80,29.93,29.83,4,0,7,0.00
2013-12-4,63,54,46,59,52,45,97,92,86,29.91,29.75,5,0,9,0.00
2013-12-5,65,49,33,62,46,30,98,90,79,30.20,29.79,9,2,15,0.41
2013-12-6,33,29,27,30,28,26,97,94,88,30.46,30.17,6,2,10,0.08
2013-12-7,27,24,19,26,21,16,97,88,76,30.67,30.45,5,2,8,0.00
2013-12-8,32,26,20,32,23,17,98,90,82,30.59,30.08,6,1,7,0.00
2013-12-9,33,30,25,33,28,20,98,90,80,30.29,30.07,7,2,12,0.00
2013-12-10,29,24,17,20,18,14,94,80,67,30.44,30.23,12,2,18,0.00
2013-12-11,36,24,14,25,18,12,95,80,64,30.59,30.36,12,2,17,0.03
2013-12-12,26,18,8,13,8,3,88,67,43,30.64,30.42,10,2,13,0.00
2013-12-13,39,29,17,31,20,11,90,70,55,30.43,30.22,6,1,12,0.05
2013-12-14,39,36,33,38,34,31,98,95,90,30.22,29.76,5,1,10,0.72
2013-12-15,33,30,28,31,25,22,93,83,71,30.19,29.94,10,4,15,0.00
2013-12-16,36,32,28,33,30,24,96,93,83,30.19,30.05,4,0,9,0.03
2013-12-17,36,32,29,34,28,25,97,87,79,30.23,30.04,7,2,12,0.01
2013-12-18,38,31,24,26,22,19,93,70,46,30.35,30.12,8,2,10,0.00
2013-12-19,55,46,33,43,34,22,75,64,57,30.15,30.01,10,2,13,0.02
2013-12-20,61,56,51,58,49,39,92,79,58,30.00,29.85,7,2,16,0.01
2013-12-21,68,61,58,64,60,57,99,95,88,29.85,29.49,12,3,23,1.91
2013-12-22,62,53,40,62,50,37,97,88,74,30.08,29.59,12,5,21,0.41
2013-12-23,40,32,25,37,27,19,93,79,69,30.45,30.09,8,2,12,0.01
2013-12-24,26,20,14,22,13,9,87,76,60,30.63,30.43,13,2,15,0.00
2013-12-25,35,28,18,25,18,14,85,68,52,30.57,30.27,6,2,11,0.00
2013-12-26,41,34,30,28,25,22,80,68,49,30.42,30.25,9,2,16,0.00
2013-12-27,49,37,27,33,29,24,87,72,54,30.47,30.34,6,1,10,0.00
2013-12-28,52,42,32,35,31,28,85,67,51,30.34,30.08,9,2,12,0.00
2013-12-29,45,40,33,41,36,31,97,88,63,30.08,29.85,7,2,12,0.31
2013-12-30,33,28,22,31,22,17,91,77,67,30.31,30.09,8,2,12,0.00
2013-12-31,35,28,23,23,19,16,80,69,55,30.45,30.25,10,2,13,0.00
2014-1-1,47,35,23,31,26,21,93,73,49,30.35,30.06,7,1,11,0.00
2014-1-2,38,25,12,32,22,6,96,89,72,30.35,29.88,12,2,17,0.01